| time (UTC) | temp F | wind direction | speed knots | gust knots | rain 1hr in | rain 24hr in | rain mn in | humidity % | barometer mb |
| 20260507070037 | 41 | 0.0 | 0.9 | 0.00 | 0.45 | 0.00 | 91 | 1012.4 | |
| 20260507065537 | 41 | 0.0 | 0.9 | 0.00 | 0.46 | 0.00 | 91 | 1012.3 | |
| 20260507065017 | 41 | 0.0 | 0.9 | 0.00 | 0.47 | 0.00 | 91 | 1012.4 | |
| 20260507064517 | 41 | 0.0 | 0.0 | 0.00 | 0.49 | 0.00 | 91 | 1012.3 | |
| 20260507064017 | 41 | 0.0 | 0.0 | 0.00 | 0.49 | 0.00 | 92 | 1012.3 | |
| 20260507063537 | 41 | 0.0 | 0.9 | 0.00 | 0.51 | 0.00 | 91 | 1012.2 | |
| 20260507063037 | 42 | 0.0 | 0.9 | 0.00 | 0.53 | 0.00 | 91 | 1012.1 | |
| 20260507062517 | 42 | 0.0 | 0.0 | 0.00 | 0.54 | 0.00 | 92 | 1012.5 | |
| 20260507062017 | 42 | 0.0 | 0.0 | 0.00 | 0.55 | 0.00 | 92 | 1012.2 | |
| 20260507061517 | 42 | 0.0 | 0.0 | 0.00 | 0.57 | 0.00 | 92 | 1012.2 | |
| 20260507061017 | 42 | 0.0 | 0.9 | 0.00 | 0.58 | 0.00 | 92 | 1012.2 | |
| 20260507060517 | 42 | 0.0 | 0.9 | 0.00 | 0.60 | 0.00 | 92 | 1012.3 | |
| 20260507060017 | 42 | 0.0 | 0.9 | 0.00 | 0.63 | 0.00 | 92 | 1012.5 | |
| 20260507055517 | 42 | 0.0 | 0.9 | 0.00 | 0.64 | 0.00 | 92 | 1012.6 | |
| 20260507055017 | 42 | 0 | 0.9 | 2.6 | 0.00 | 0.65 | 0.00 | 92 | 1012.7 |
| 20260507054517 | 42 | 0 | 0.9 | 1.7 | 0.00 | 0.65 | 0.00 | 92 | 1012.7 |
| 20260507054036 | 42 | 248 | 0.9 | 1.7 | 0.00 | 0.66 | 0.00 | 92 | 1012.7 |
| 20260507053517 | 42 | 248 | 0.9 | 1.7 | 0.00 | 0.66 | 0.00 | 92 | 1012.8 |
| 20260507053017 | 42 | 0.0 | 1.7 | 0.00 | 0.66 | 0.00 | 92 | 1012.8 | |
| 20260507052517 | 42 | 0.0 | 1.7 | 0.00 | 0.67 | 0.00 | 92 | 1012.9 | |
| 20260507052017 | 42 | 248 | 0.9 | 2.6 | 0.00 | 0.67 | 0.00 | 92 | 1012.8 |
| 20260507051517 | 42 | 0.0 | 0.9 | 0.00 | 0.68 | 0.00 | 92 | 1012.9 | |
| 20260507051017 | 42 | 0.0 | 0.9 | 0.00 | 0.69 | 0.00 | 92 | 1012.9 | |
| 20260507050617 | 42 | 315 | 0.9 | 2.6 | 0.00 | 0.70 | 0.00 | 92 | 1013.1 |
| 20260507050016 | 42 | 0.0 | 1.7 | 0.00 | 0.70 | 0.00 | 92 | 1013.1 | |
| 20260507045517 | 42 | 0.0 | 0.9 | 0.00 | 0.71 | 0.00 | 92 | 1013.0 | |
| 20260507045017 | 42 | 0 | 0.9 | 1.7 | 0.00 | 0.72 | 0.00 | 92 | 1013.0 |
| 20260507044517 | 42 | 0 | 0.9 | 2.6 | 0.00 | 0.73 | 0.00 | 92 | 1013.1 |
| 20260507044017 | 42 | 0 | 0.9 | 2.6 | 0.00 | 0.73 | 0.00 | 92 | 1013.0 |
| 20260507043516 | 42 | 293 | 0.9 | 3.5 | 0.00 | 0.73 | 0.00 | 92 | 1013.0 |
| 20260507043017 | 42 | 270 | 0.9 | 3.5 | 0.00 | 0.74 | 0.00 | 92 | 1012.9 |
| 20260507042517 | 42 | 0 | 0.9 | 3.5 | 0.00 | 0.74 | 0.00 | 92 | 1012.9 |
| 20260507042017 | 42 | 0 | 1.7 | 4.3 | 0.00 | 0.75 | 0.00 | 92 | 1012.9 |
| 20260507041537 | 43 | 0 | 0.9 | 4.3 | 0.00 | 0.75 | 0.00 | 92 | 1012.9 |
| 20260507041017 | 43 | 0 | 0.9 | 2.6 | 0.00 | 0.75 | 0.00 | 92 | 1012.8 |
| 20260507040517 | 43 | 0 | 0.9 | 1.7 | 0.00 | 0.75 | 0.00 | 92 | 1012.7 |
| 20260507040016 | 43 | 0 | 1.7 | 3.5 | 0.00 | 0.76 | 0.76 | 92 | 1012.7 |
| 20260507035516 | 43 | 0 | 0.9 | 2.6 | 0.00 | 0.76 | 0.76 | 92 | 1012.8 |
| 20260507035016 | 43 | 0 | 0.9 | 2.6 | 0.00 | 0.76 | 0.76 | 92 | 1012.7 |
| 20260507034516 | 43 | 0 | 1.7 | 2.6 | 0.00 | 0.77 | 0.76 | 92 | 1012.7 |
| 20260507034016 | 43 | 0 | 1.7 | 4.3 | 0.00 | 0.77 | 0.76 | 92 | 1012.6 |
| 20260507033536 | 43 | 0 | 0.9 | 3.5 | 0.00 | 0.78 | 0.76 | 92 | 1012.6 |
| 20260507033036 | 43 | 0.0 | 2.6 | 0.00 | 0.78 | 0.76 | 92 | 1012.7 | |
| 20260507032516 | 43 | 0 | 0.9 | 3.5 | 0.00 | 0.79 | 0.76 | 92 | 1012.8 |
| 20260507032036 | 43 | 0 | 0.9 | 2.6 | 0.00 | 0.80 | 0.76 | 92 | 1012.5 |
| 20260507031516 | 43 | 0 | 1.7 | 3.5 | 0.00 | 0.80 | 0.76 | 92 | 1012.5 |
| 20260507031016 | 43 | 0 | 1.7 | 3.5 | 0.00 | 0.80 | 0.76 | 92 | 1012.5 |
| 20260507030516 | 43 | 0 | 0.9 | 2.6 | 0.00 | 0.80 | 0.76 | 92 | 1012.3 |
| 20260507030035 | 43 | 0 | 1.7 | 3.5 | 0.00 | 0.80 | 0.76 | 92 | 1012.5 |
| 20260507025516 | 43 | 0 | 0.9 | 2.6 | 0.00 | 0.80 | 0.76 | 92 | 1012.4 |
| 20260507025016 | 43 | 0 | 0.9 | 3.5 | 0.00 | 0.80 | 0.76 | 92 | 1012.3 |
| 20260507024518 | 43 | 0 | 0.9 | 1.7 | 0.00 | 0.81 | 0.76 | 92 | 1012.3 |
| 20260507024018 | 43 | 0 | 0.9 | 2.6 | 0.00 | 0.81 | 0.76 | 92 | 1012.3 |
| 20260507023518 | 43 | 0 | 1.7 | 3.5 | 0.00 | 0.81 | 0.76 | 91 | 1012.4 |
| 20260507023018 | 43 | 0 | 0.9 | 3.5 | 0.00 | 0.81 | 0.76 | 92 | 1012.5 |
| 20260507022518 | 43 | 0 | 0.9 | 3.5 | 0.00 | 0.81 | 0.76 | 92 | 1012.4 |
| 20260507022038 | 43 | 0.0 | 0.9 | 0.00 | 0.81 | 0.76 | 91 | 1012.3 | |
| 20260507021518 | 43 | 0 | 0.9 | 3.5 | 0.00 | 0.82 | 0.76 | 91 | 1012.3 |
| 20260507021018 | 43 | 0.0 | 2.6 | 0.00 | 0.82 | 0.76 | 91 | 1012.3 | |
| 20260507020518 | 43 | 0 | 0.9 | 2.6 | 0.00 | 0.82 | 0.76 | 91 | 1012.6 |
| 20260507020017 | 43 | 248 | 0.9 | 2.6 | 0.00 | 0.82 | 0.76 | 91 | 1012.4 |
| 20260507015517 | 43 | 0 | 1.7 | 3.5 | 0.00 | 0.82 | 0.76 | 91 | 1012.5 |
| 20260507015038 | 43 | 0 | 1.7 | 3.5 | 0.00 | 0.83 | 0.76 | 91 | 1012.4 |
| 20260507014518 | 43 | 0 | 1.7 | 2.6 | 0.00 | 0.83 | 0.76 | 91 | 1012.3 |
| 20260507014018 | 43 | 0.0 | 2.6 | 0.00 | 0.84 | 0.76 | 91 | 1012.3 | |
| 20260507013518 | 43 | 0 | 0.9 | 3.5 | 0.00 | 0.84 | 0.76 | 91 | 1012.1 |
| 20260507013018 | 44 | 0 | 0.9 | 2.6 | 0.00 | 0.85 | 0.76 | 91 | 1012.1 |
| 20260507012518 | 44 | 0 | 1.7 | 3.5 | 0.00 | 0.85 | 0.76 | 91 | 1012.3 |
| 20260507012058 | 44 | 0 | 2.6 | 7.0 | 0.00 | 0.86 | 0.76 | 90 | 1012.4 |
| 20260507011518 | 44 | 0 | 1.7 | 8.7 | 0.00 | 0.86 | 0.76 | 91 | 1012.6 |
| 20260507011018 | 44 | 0 | 1.7 | 3.5 | 0.00 | 0.86 | 0.76 | 90 | 1012.5 |
| 20260507010518 | 44 | 0 | 2.6 | 8.7 | 0.00 | 0.86 | 0.76 | 90 | 1012.5 |
| 20260507010017 | 44 | 0 | 2.6 | 7.8 | 0.00 | 0.86 | 0.76 | 90 | 1012.3 |
| 20260507005517 | 44 | 0 | 2.6 | 7.0 | 0.01 | 0.86 | 0.76 | 90 | 1012.2 |
| 20260507005018 | 45 | 0 | 3.5 | 10.4 | 0.02 | 0.86 | 0.76 | 90 | 1012.1 |
| 20260507004518 | 45 | 0 | 2.6 | 7.0 | 0.03 | 0.86 | 0.76 | 90 | 1011.9 |
| 20260507004018 | 45 | 0 | 2.6 | 7.0 | 0.03 | 0.86 | 0.76 | 90 | 1011.9 |
| 20260507003537 | 45 | 0 | 2.6 | 5.2 | 0.03 | 0.87 | 0.76 | 89 | 1011.7 |
| 20260507003037 | 45 | 0.0 | 1.7 | 0.03 | 0.87 | 0.76 | 89 | 1011.3 | |
| 20260507002517 | 45 | 0 | 0.9 | 2.6 | 0.03 | 0.87 | 0.76 | 89 | 1011.1 |
| 20260507002017 | 45 | 315 | 1.7 | 4.3 | 0.03 | 0.87 | 0.76 | 89 | 1011.1 |
| 20260507001517 | 45 | 315 | 2.6 | 4.3 | 0.05 | 0.87 | 0.76 | 89 | 1011.2 |
| 20260507001037 | 45 | 0 | 3.5 | 7.8 | 0.07 | 0.87 | 0.76 | 88 | 1011.1 |
| 20260507000517 | 46 | 0 | 3.5 | 8.7 | 0.09 | 0.88 | 0.76 | 88 | 1011.0 |
| 20260507000017 | 46 | 0 | 6.1 | 11.3 | 0.09 | 0.88 | 0.76 | 88 | 1011.2 |
| 20260506235537 | 47 | 0 | 7.8 | 16.5 | 0.08 | 0.87 | 0.75 | 87 | 1011.0 |
| 20260506235017 | 48 | 0 | 4.3 | 12.2 | 0.07 | 0.87 | 0.74 | 88 | 1010.7 |
| 20260506234517 | 48 | 180 | 1.7 | 4.3 | 0.06 | 0.86 | 0.73 | 87 | 1010.7 |
| 20260506234017 | 49 | 45 | 0.9 | 2.6 | 0.06 | 0.86 | 0.73 | 87 | 1010.7 |
| 20260506233517 | 49 | 0 | 0.9 | 2.6 | 0.06 | 0.87 | 0.73 | 86 | 1010.6 |
| 20260506233057 | 49 | 0 | 0.9 | 3.5 | 0.06 | 0.87 | 0.73 | 86 | 1010.5 |
| 20260506232517 | 49 | 0 | 0.9 | 3.5 | 0.06 | 0.88 | 0.73 | 86 | 1010.7 |
| 20260506232017 | 49 | 0 | 2.6 | 3.5 | 0.06 | 0.88 | 0.73 | 85 | 1010.5 |
| 20260506231517 | 49 | 68 | 0.9 | 2.6 | 0.04 | 0.87 | 0.71 | 85 | 1010.3 |
| 20260506231017 | 49 | 90 | 1.7 | 2.6 | 0.02 | 0.87 | 0.69 | 84 | 1010.2 |
| 20260506230557 | 49 | 90 | 1.7 | 3.5 | 0.00 | 0.85 | 0.67 | 84 | 1010.1 |
| 20260506230037 | 49 | 90 | 0.9 | 2.6 | 0.00 | 0.86 | 0.67 | 84 | 1009.9 |
| 20260506225517 | 49 | 90 | 1.7 | 3.5 | 0.00 | 0.87 | 0.67 | 83 | 1010.0 |
| 20260506225017 | 49 | 90 | 2.6 | 5.2 | 0.00 | 0.88 | 0.67 | 83 | 1010.0 |
| 20260506224517 | 50 | 113 | 2.6 | 4.3 | 0.00 | 0.88 | 0.67 | 83 | 1009.9 |
| 20260506224017 | 50 | 90 | 2.6 | 5.2 | 0.00 | 0.89 | 0.67 | 82 | 1009.8 |
| 20260506223537 | 50 | 90 | 1.7 | 3.5 | 0.00 | 0.89 | 0.67 | 82 | 1009.9 |
| 20260506223017 | 50 | 113 | 2.6 | 6.1 | 0.00 | 0.89 | 0.67 | 82 | 1009.9 |
| 20260506222517 | 50 | 113 | 1.7 | 3.5 | 0.00 | 0.89 | 0.67 | 81 | 1010.0 |
| 20260506222016 | 50 | 90 | 1.7 | 3.5 | 0.00 | 0.89 | 0.67 | 82 | 1009.9 |
| 20260506221536 | 50 | 90 | 2.6 | 3.5 | 0.00 | 0.89 | 0.67 | 82 | 1009.8 |
| 20260506221016 | 50 | 113 | 1.7 | 5.2 | 0.00 | 0.89 | 0.67 | 82 | 1009.9 |
| 20260506220556 | 50 | 90 | 1.7 | 5.2 | 0.00 | 0.89 | 0.67 | 82 | 1009.8 |
| 20260506220016 | 50 | 135 | 1.7 | 2.6 | 0.00 | 0.89 | 0.67 | 81 | 1009.8 |
| 20260506215516 | 50 | 135 | 0.9 | 1.7 | 0.00 | 0.89 | 0.67 | 81 | 1009.8 |
| 20260506215016 | 50 | 135 | 0.9 | 1.7 | 0.00 | 0.89 | 0.67 | 81 | 1009.6 |
| 20260506214516 | 50 | 113 | 1.7 | 2.6 | 0.00 | 0.89 | 0.67 | 81 | 1009.5 |
| 20260506214016 | 50 | 90 | 0.9 | 2.6 | 0.00 | 0.89 | 0.67 | 80 | 1009.5 |
| 20260506213516 | 50 | 90 | 0.9 | 1.7 | 0.00 | 0.89 | 0.67 | 80 | 1009.6 |
| 20260506213016 | 50 | 90 | 0.9 | 1.7 | 0.00 | 0.89 | 0.67 | 80 | 1009.7 |
| 20260506212516 | 50 | 90 | 0.9 | 1.7 | 0.00 | 0.89 | 0.67 | 80 | 1009.7 |
| 20260506212016 | 50 | 113 | 0.9 | 2.6 | 0.00 | 0.89 | 0.67 | 80 | 1009.7 |
| 20260506211516 | 50 | 113 | 0.9 | 1.7 | 0.00 | 0.89 | 0.67 | 80 | 1009.8 |
| 20260506211016 | 50 | 0 | 0.9 | 2.6 | 0.00 | 0.89 | 0.67 | 80 | 1009.8 |
| 20260506210516 | 50 | 203 | 0.9 | 3.5 | 0.00 | 0.89 | 0.67 | 80 | 1009.8 |
| 20260506210016 | 50 | 135 | 0.9 | 2.6 | 0.00 | 0.89 | 0.67 | 80 | 1009.9 |
| 20260506205516 | 50 | 248 | 0.9 | 2.6 | 0.00 | 0.89 | 0.67 | 80 | 1009.8 |
| 20260506205016 | 50 | 248 | 0.9 | 3.5 | 0.00 | 0.89 | 0.67 | 80 | 1009.9 |
| 20260506204516 | 50 | 180 | 0.9 | 1.7 | 0.00 | 0.89 | 0.67 | 81 | 1009.8 |
| 20260506204016 | 50 | 315 | 0.9 | 2.6 | 0.00 | 0.89 | 0.67 | 81 | 1009.7 |
| 20260506203516 | 50 | 68 | 0.9 | 1.7 | 0.00 | 0.89 | 0.67 | 81 | 1009.8 |
| 20260506203016 | 50 | 90 | 1.7 | 2.6 | 0.00 | 0.89 | 0.67 | 81 | 1009.7 |
| 20260506202516 | 50 | 45 | 0.9 | 2.6 | 0.00 | 0.89 | 0.67 | 81 | 1009.9 |
| 20260506202016 | 49 | 45 | 0.9 | 2.6 | 0.00 | 0.89 | 0.67 | 81 | 1009.8 |
| 20260506201516 | 49 | 90 | 0.9 | 2.6 | 0.00 | 0.89 | 0.67 | 81 | 1009.7 |
| 20260506201016 | 49 | 68 | 1.7 | 3.5 | 0.00 | 0.89 | 0.67 | 81 | 1009.7 |
| 20260506200536 | 49 | 68 | 0.9 | 2.6 | 0.00 | 0.89 | 0.67 | 81 | 1009.6 |
| 20260506200016 | 49 | 180 | 0.9 | 2.6 | 0.00 | 0.89 | 0.67 | 82 | 1009.8 |
| 20260506195516 | 49 | 0 | 0.9 | 1.7 | 0.00 | 0.89 | 0.67 | 82 | 1009.9 |
| 20260506195016 | 49 | 0 | 1.7 | 4.3 | 0.00 | 0.89 | 0.67 | 82 | 1009.9 |
| 20260506194516 | 49 | 0 | 1.7 | 3.5 | 0.00 | 0.89 | 0.67 | 82 | 1009.8 |
| 20260506194016 | 49 | 315 | 1.7 | 3.5 | 0.00 | 0.89 | 0.67 | 83 | 1009.7 |
| 20260506193536 | 48 | 23 | 0.9 | 1.7 | 0.00 | 0.89 | 0.67 | 83 | 1009.8 |
| 20260506193016 | 48 | 0 | 1.7 | 6.1 | 0.00 | 0.89 | 0.67 | 83 | 1009.7 |
| 20260506192556 | 48 | 68 | 0.9 | 2.6 | 0.00 | 0.89 | 0.67 | 83 | 1009.7 |
| 20260506192016 | 48 | 23 | 0.9 | 1.7 | 0.00 | 0.89 | 0.67 | 83 | 1009.6 |
| 20260506191516 | 48 | 338 | 0.9 | 3.5 | 0.00 | 0.89 | 0.67 | 84 | 1009.5 |
| 20260506191036 | 48 | 68 | 2.6 | 5.2 | 0.00 | 0.89 | 0.67 | 84 | 1009.6 |
| 20260506190516 | 48 | 0 | 1.7 | 3.5 | 0.00 | 0.89 | 0.67 | 85 | 1009.7 |
| 20260506190035 | 48 | 0 | 0.9 | 2.6 | 0.00 | 0.89 | 0.67 | 85 | 1009.8 |
| 20260506185516 | 48 | 0 | 0.9 | 2.6 | 0.00 | 0.89 | 0.67 | 85 | 1009.7 |
| 20260506185016 | 48 | 68 | 1.7 | 5.2 | 0.00 | 0.89 | 0.67 | 85 | 1009.8 |
| 20260506184516 | 48 | 338 | 1.7 | 4.3 | 0.00 | 0.89 | 0.67 | 86 | 1009.9 |
| 20260506184056 | 48 | 0 | 1.7 | 4.3 | 0.00 | 0.89 | 0.67 | 86 | 1009.7 |
| 20260506183536 | 48 | 68 | 2.6 | 7.0 | 0.00 | 0.89 | 0.67 | 86 | 1009.8 |
| 20260506183016 | 48 | 68 | 1.7 | 3.5 | 0.00 | 0.89 | 0.67 | 86 | 1009.7 |
| 20260506182536 | 48 | 23 | 1.7 | 3.5 | 0.00 | 0.89 | 0.67 | 87 | 1009.7 |
| 20260506182036 | 48 | 338 | 2.6 | 7.0 | 0.00 | 0.89 | 0.67 | 87 | 1009.8 |
| 20260506181516 | 48 | 0 | 1.7 | 4.3 | 0.00 | 0.89 | 0.67 | 87 | 1009.7 |
| 20260506181036 | 48 | 0 | 1.7 | 4.3 | 0.00 | 0.89 | 0.67 | 87 | 1009.8 |
| 20260506180516 | 47 | 338 | 1.7 | 3.5 | 0.00 | 0.89 | 0.67 | 87 | 1009.9 |
| 20260506180016 | 48 | 0 | 1.7 | 5.2 | 0.00 | 0.89 | 0.67 | 88 | 1009.8 |
| 20260506175516 | 47 | 0 | 1.7 | 5.2 | 0.00 | 0.89 | 0.67 | 88 | 1010.0 |
| 20260506175016 | 48 | 338 | 1.7 | 4.3 | 0.00 | 0.89 | 0.67 | 88 | 1009.9 |
| 20260506174516 | 48 | 0 | 2.6 | 7.0 | 0.00 | 0.89 | 0.67 | 89 | 1009.8 |
| 20260506174016 | 47 | 0 | 1.7 | 4.3 | 0.00 | 0.89 | 0.67 | 88 | 1009.6 |
| 20260506173536 | 48 | 338 | 2.6 | 5.2 | 0.00 | 0.89 | 0.67 | 89 | 1009.4 |
| 20260506173016 | 48 | 338 | 2.6 | 6.1 | 0.00 | 0.89 | 0.67 | 89 | 1009.4 |
| 20260506172516 | 47 | 338 | 1.7 | 4.3 | 0.00 | 0.89 | 0.67 | 89 | 1009.4 |
| 20260506172016 | 47 | 0 | 1.7 | 4.3 | 0.00 | 0.89 | 0.67 | 89 | 1009.4 |
| 20260506171516 | 47 | 0 | 1.7 | 3.5 | 0.00 | 0.89 | 0.67 | 90 | 1009.2 |
| 20260506171036 | 47 | 68 | 0.9 | 2.6 | 0.00 | 0.89 | 0.67 | 90 | 1009.0 |
| 20260506170516 | 47 | 338 | 1.7 | 5.2 | 0.00 | 0.89 | 0.67 | 90 | 1009.0 |
| 20260506170015 | 47 | 45 | 1.7 | 3.5 | 0.00 | 0.89 | 0.67 | 90 | 1009.0 |
| 20260506165516 | 47 | 338 | 1.7 | 5.2 | 0.00 | 0.89 | 0.67 | 90 | 1009.0 |
| 20260506165015 | 47 | 0 | 1.7 | 3.5 | 0.00 | 0.89 | 0.67 | 91 | 1009.2 |
| 20260506164516 | 47 | 338 | 1.7 | 3.5 | 0.00 | 0.89 | 0.67 | 91 | 1009.2 |
| 20260506164016 | 46 | 338 | 0.9 | 3.5 | 0.00 | 0.89 | 0.67 | 91 | 1009.1 |
| 20260506163518 | 46 | 68 | 0.9 | 1.7 | 0.00 | 0.89 | 0.67 | 91 | 1009.3 |
| 20260506163018 | 47 | 68 | 1.7 | 4.3 | 0.00 | 0.89 | 0.67 | 91 | 1009.1 |
| 20260506162518 | 47 | 45 | 1.7 | 4.3 | 0.00 | 0.89 | 0.67 | 92 | 1009.0 |
| 20260506162018 | 47 | 0 | 0.9 | 2.6 | 0.00 | 0.89 | 0.67 | 92 | 1009.0 |
| 20260506161538 | 47 | 0 | 2.6 | 7.0 | 0.00 | 0.89 | 0.67 | 92 | 1008.9 |
| 20260506161018 | 47 | 315 | 2.6 | 7.0 | 0.00 | 0.89 | 0.67 | 92 | 1009.1 |
| 20260506160518 | 46 | 338 | 1.7 | 7.0 | 0.00 | 0.89 | 0.67 | 92 | 1009.0 |
| 20260506160018 | 46 | 68 | 1.7 | 4.3 | 0.00 | 0.89 | 0.67 | 92 | 1009.0 |
| 20260506155518 | 46 | 45 | 1.7 | 4.3 | 0.00 | 0.89 | 0.67 | 93 | 1009.1 |
| 20260506155038 | 46 | 0 | 0.9 | 2.6 | 0.00 | 0.89 | 0.67 | 93 | 1009.2 |
| 20260506154517 | 46 | 23 | 1.7 | 3.5 | 0.00 | 0.89 | 0.67 | 93 | 1009.2 |
| 20260506154018 | 46 | 338 | 0.9 | 4.3 | 0.00 | 0.89 | 0.67 | 93 | 1009.2 |
| 20260506153637 | 46 | 68 | 0.9 | 2.6 | 0.00 | 0.89 | 0.67 | 93 | 1009.1 |
| 20260506153018 | 46 | 23 | 0.9 | 4.3 | 0.00 | 0.89 | 0.67 | 93 | 1009.1 |
| 20260506152518 | 46 | 0 | 1.7 | 4.3 | 0.00 | 0.89 | 0.67 | 94 | 1009.0 |
| 20260506152018 | 46 | 68 | 1.7 | 3.5 | 0.00 | 0.89 | 0.67 | 93 | 1008.9 |
| 20260506151517 | 45 | 0 | 1.7 | 3.5 | 0.00 | 0.89 | 0.67 | 93 | 1008.9 |
| 20260506151018 | 45 | 68 | 0.9 | 3.5 | 0.00 | 0.89 | 0.67 | 93 | 1008.9 |
| 20260506150518 | 45 | 68 | 1.7 | 4.3 | 0.00 | 0.89 | 0.67 | 94 | 1008.9 |
| 20260506150017 | 45 | 338 | 1.7 | 3.5 | 0.00 | 0.89 | 0.67 | 93 | 1009.0 |
| 20260506145518 | 45 | 0 | 0.9 | 2.6 | 0.00 | 0.89 | 0.67 | 93 | 1008.9 |
| 20260506145018 | 45 | 23 | 1.7 | 3.5 | 0.00 | 0.89 | 0.67 | 94 | 1008.9 |
| 20260506144558 | 45 | 23 | 0.9 | 2.6 | 0.00 | 0.89 | 0.67 | 94 | 1008.7 |
| 20260506144016 | 45 | 0.0 | 1.7 | 0.01 | 0.89 | 0.67 | 94 | 1008.7 | |
| 20260506143517 | 45 | 338 | 0.9 | 3.5 | 0.01 | 0.89 | 0.67 | 94 | 1008.6 |
| 20260506143057 | 45 | 68 | 0.9 | 3.5 | 0.01 | 0.89 | 0.67 | 94 | 1008.5 |
| 20260506142518 | 45 | 45 | 0.9 | 1.7 | 0.01 | 0.89 | 0.67 | 94 | 1008.5 |
| 20260506142017 | 45 | 45 | 0.9 | 3.5 | 0.01 | 0.89 | 0.67 | 94 | 1008.6 |
| 20260506141517 | 45 | 68 | 1.7 | 3.5 | 0.01 | 0.89 | 0.67 | 94 | 1008.4 |
| 20260506141017 | 45 | 68 | 1.7 | 4.3 | 0.01 | 0.89 | 0.67 | 94 | 1008.4 |
| 20260506140518 | 45 | 45 | 0.9 | 3.5 | 0.01 | 0.89 | 0.67 | 94 | 1008.3 |
| 20260506140017 | 44 | 90 | 1.7 | 4.3 | 0.01 | 0.89 | 0.67 | 94 | 1008.3 |
| 20260506135517 | 44 | 0.0 | 1.7 | 0.02 | 0.89 | 0.67 | 94 | 1008.2 | |
| 20260506135017 | 44 | 68 | 0.9 | 2.6 | 0.02 | 0.89 | 0.67 | 94 | 1008.4 |
| 20260506134517 | 44 | 68 | 1.7 | 4.3 | 0.02 | 0.89 | 0.67 | 94 | 1008.4 |
| 20260506134017 | 44 | 68 | 1.7 | 4.3 | 0.01 | 0.88 | 0.66 | 94 | 1008.6 |
| 20260506133517 | 44 | 68 | 1.7 | 3.5 | 0.01 | 0.88 | 0.66 | 94 | 1008.5 |
| 20260506133017 | 44 | 45 | 1.7 | 3.5 | 0.01 | 0.88 | 0.66 | 94 | 1008.4 |
| 20260506132517 | 44 | 90 | 1.7 | 4.3 | 0.01 | 0.88 | 0.66 | 94 | 1008.4 |
| 20260506132037 | 44 | 68 | 1.7 | 7.8 | 0.01 | 0.88 | 0.66 | 94 | 1008.3 |
| 20260506131537 | 44 | 68 | 1.7 | 4.3 | 0.02 | 0.88 | 0.66 | 94 | 1008.3 |
| 20260506131018 | 44 | 90 | 2.6 | 5.2 | 0.02 | 0.88 | 0.66 | 94 | 1008.3 |
| 20260506130517 | 44 | 90 | 2.6 | 5.2 | 0.02 | 0.88 | 0.66 | 94 | 1008.1 |
| 20260506130017 | 44 | 45 | 2.6 | 7.0 | 0.02 | 0.88 | 0.66 | 94 | 1008.2 |
| 20260506125517 | 44 | 45 | 2.6 | 6.1 | 0.02 | 0.87 | 0.65 | 94 | 1008.2 |
| 20260506125017 | 44 | 90 | 2.6 | 4.3 | 0.02 | 0.87 | 0.65 | 94 | 1008.2 |
| 20260506124517 | 44 | 68 | 2.6 | 4.3 | 0.03 | 0.87 | 0.65 | 94 | 1008.2 |
| 20260506124017 | 44 | 68 | 2.6 | 7.0 | 0.03 | 0.87 | 0.65 | 94 | 1008.1 |
| 20260506123517 | 44 | 68 | 0.9 | 3.5 | 0.03 | 0.87 | 0.65 | 94 | 1008.4 |
| 20260506123017 | 44 | 45 | 0.9 | 3.5 | 0.03 | 0.87 | 0.65 | 94 | 1008.4 |
| 20260506122517 | 44 | 45 | 1.7 | 4.3 | 0.03 | 0.87 | 0.65 | 94 | 1008.4 |
| 20260506122017 | 44 | 45 | 1.7 | 4.3 | 0.03 | 0.87 | 0.65 | 94 | 1008.4 |
| 20260506121517 | 44 | 45 | 1.7 | 3.5 | 0.03 | 0.86 | 0.64 | 94 | 1008.1 |
| 20260506121037 | 44 | 68 | 1.7 | 3.5 | 0.03 | 0.86 | 0.64 | 94 | 1008.4 |
| 20260506120517 | 44 | 68 | 1.7 | 3.5 | 0.03 | 0.86 | 0.64 | 94 | 1008.3 |
| 20260506120017 | 44 | 68 | 0.9 | 2.6 | 0.03 | 0.86 | 0.64 | 94 | 1008.3 |
| 20260506115517 | 44 | 68 | 2.6 | 4.3 | 0.02 | 0.85 | 0.63 | 94 | 1008.5 |
| 20260506115037 | 44 | 68 | 1.7 | 4.3 | 0.02 | 0.85 | 0.63 | 94 | 1008.3 |
| 20260506114517 | 44 | 68 | 2.6 | 7.8 | 0.02 | 0.84 | 0.62 | 94 | 1008.5 |
| 20260506114037 | 44 | 45 | 1.7 | 6.1 | 0.02 | 0.84 | 0.62 | 94 | 1008.4 |
| 20260506113517 | 44 | 68 | 2.6 | 7.0 | 0.02 | 0.84 | 0.62 | 94 | 1008.2 |
| 20260506113017 | 44 | 45 | 2.6 | 7.0 | 0.03 | 0.84 | 0.62 | 94 | 1008.1 |
| 20260506112557 | 44 | 68 | 2.6 | 7.8 | 0.04 | 0.84 | 0.62 | 94 | 1008.0 |
| 20260506112017 | 44 | 68 | 2.6 | 6.1 | 0.04 | 0.84 | 0.62 | 94 | 1008.0 |
| 20260506111517 | 44 | 90 | 3.5 | 8.7 | 0.03 | 0.83 | 0.61 | 94 | 1007.9 |
| 20260506111017 | 44 | 90 | 2.6 | 7.8 | 0.04 | 0.83 | 0.61 | 94 | 1007.9 |
| 20260506110517 | 44 | 68 | 3.5 | 7.8 | 0.05 | 0.83 | 0.61 | 94 | 1008.0 |
| 20260506110017 | 44 | 90 | 3.5 | 7.8 | 0.05 | 0.83 | 0.61 | 94 | 1007.9 |
| 20260506105517 | 44 | 68 | 3.5 | 7.8 | 0.05 | 0.83 | 0.61 | 94 | 1007.9 |
| 20260506105037 | 44 | 68 | 3.5 | 7.0 | 0.06 | 0.83 | 0.61 | 94 | 1007.9 |
| 20260506104517 | 44 | 68 | 3.5 | 7.0 | 0.06 | 0.82 | 0.60 | 94 | 1008.2 |
| 20260506104037 | 44 | 68 | 3.5 | 7.0 | 0.07 | 0.82 | 0.60 | 94 | 1008.2 |
| 20260506103517 | 44 | 68 | 0.9 | 3.5 | 0.08 | 0.82 | 0.60 | 94 | 1008.3 |
| 20260506103037 | 44 | 45 | 1.7 | 5.2 | 0.07 | 0.81 | 0.59 | 94 | 1008.4 |
| 20260506102517 | 44 | 68 | 1.7 | 4.3 | 0.06 | 0.80 | 0.58 | 94 | 1008.5 |
| 20260506102017 | 45 | 68 | 1.7 | 6.1 | 0.07 | 0.80 | 0.58 | 94 | 1008.3 |
| 20260506101517 | 45 | 68 | 2.6 | 7.8 | 0.08 | 0.80 | 0.58 | 94 | 1008.4 |
| 20260506101017 | 45 | 68 | 1.7 | 6.1 | 0.07 | 0.79 | 0.57 | 94 | 1008.5 |
| 20260506100517 | 45 | 338 | 0.9 | 2.6 | 0.07 | 0.78 | 0.56 | 94 | 1008.7 |
| 20260506100037 | 45 | 0 | 1.7 | 3.5 | 0.07 | 0.78 | 0.56 | 94 | 1008.7 |
| 20260506095517 | 45 | 338 | 1.7 | 4.3 | 0.07 | 0.78 | 0.56 | 94 | 1008.4 |
| 20260506095017 | 45 | 23 | 1.7 | 4.3 | 0.07 | 0.77 | 0.55 | 94 | 1008.3 |
| 20260506094517 | 45 | 0.0 | 2.6 | 0.06 | 0.76 | 0.54 | 94 | 1008.5 | |
| 20260506094017 | 45 | 0.0 | 2.6 | 0.05 | 0.75 | 0.53 | 94 | 1008.5 | |
| 20260506093517 | 45 | 45 | 1.7 | 4.3 | 0.05 | 0.74 | 0.52 | 94 | 1008.4 |
| 20260506093017 | 45 | 68 | 1.7 | 3.5 | 0.05 | 0.74 | 0.52 | 94 | 1008.4 |
| 20260506092517 | 45 | 68 | 1.7 | 3.5 | 0.06 | 0.74 | 0.52 | 94 | 1008.3 |
| 20260506092017 | 45 | 45 | 1.7 | 4.3 | 0.05 | 0.73 | 0.51 | 94 | 1008.4 |
| 20260506091517 | 45 | 68 | 1.7 | 4.3 | 0.04 | 0.72 | 0.50 | 94 | 1008.3 |
| 20260506091017 | 45 | 68 | 2.6 | 5.2 | 0.05 | 0.72 | 0.50 | 94 | 1008.2 |
| 20260506090517 | 45 | 68 | 1.7 | 7.0 | 0.05 | 0.71 | 0.49 | 94 | 1008.0 |
| 20260506090016 | 45 | 68 | 3.5 | 7.8 | 0.05 | 0.71 | 0.49 | 94 | 1007.9 |
| 20260506085517 | 45 | 68 | 3.5 | 7.8 | 0.07 | 0.71 | 0.49 | 94 | 1008.0 |
| 20260506085017 | 45 | 68 | 1.7 | 7.0 | 0.07 | 0.70 | 0.48 | 94 | 1008.2 |
| 20260506084517 | 45 | 68 | 2.6 | 7.0 | 0.08 | 0.70 | 0.48 | 94 | 1008.3 |
| 20260506084017 | 46 | 68 | 4.3 | 9.6 | 0.09 | 0.70 | 0.48 | 94 | 1008.3 |
| 20260506083517 | 45 | 45 | 1.7 | 5.2 | 0.09 | 0.69 | 0.47 | 94 | 1008.6 |
| 20260506083017 | 45 | 45 | 0.9 | 3.5 | 0.10 | 0.69 | 0.47 | 94 | 1008.7 |
| 20260506082517 | 45 | 45 | 1.7 | 3.5 | 0.10 | 0.68 | 0.46 | 94 | 1008.7 |
| 20260506082017 | 46 | 68 | 1.7 | 3.5 | 0.11 | 0.68 | 0.46 | 94 | 1008.5 |
| 20260506081537 | 46 | 45 | 2.6 | 6.1 | 0.12 | 0.68 | 0.46 | 94 | 1008.3 |
| 20260506081017 | 46 | 68 | 4.3 | 9.6 | 0.12 | 0.67 | 0.45 | 94 | 1008.1 |
| 20260506080517 | 46 | 68 | 3.5 | 6.1 | 0.12 | 0.66 | 0.44 | 94 | 1008.3 |
| 20260506073037 | 46 | 45 | 1.7 | 7.0 | 0.14 | 0.59 | 0.37 | 94 | 1008.7 |
| 20260506072517 | 46 | 23 | 1.7 | 5.2 | 0.14 | 0.58 | 0.36 | 94 | 1008.7 |
| 20260506072017 | 47 | 0 | 1.7 | 5.2 | 0.14 | 0.57 | 0.35 | 94 | 1008.6 |
| 20260506071557 | 47 | 68 | 1.7 | 6.1 | 0.15 | 0.56 | 0.34 | 94 | 1008.4 |
| 20260506071037 | 47 | 45 | 1.7 | 5.2 | 0.15 | 0.55 | 0.33 | 94 | 1008.2 |
| 20260506070517 | 47 | 23 | 1.7 | 3.5 | 0.16 | 0.54 | 0.32 | 94 | 1008.3 |